<?xml version="1.0" encoding="UTF-8" standalone="no" ?><gpx xmlns="http://www.topografix.com/GPX/1/1" xmlns:gpxx="http://www.garmin.com/xmlschemas/GpxExtensions/v3" xmlns:gpxtrkx="http://www.garmin.com/xmlschemas/TrackStatsExtension/v1" xmlns:wptx1="http://www.garmin.com/xmlschemas/WaypointExtension/v1" xmlns:gpxtpx="http://www.garmin.com/xmlschemas/TrackPointExtension/v1" creator="Oregon 700" version="1.1" xmlns:xsi="http://www.w3.org/2001/XMLSchema-instance" xsi:schemaLocation="http://www.topografix.com/GPX/1/1 http://www.topografix.com/GPX/1/1/gpx.xsd http://www.garmin.com/xmlschemas/GpxExtensions/v3 http://www8.garmin.com/xmlschemas/GpxExtensionsv3.xsd http://www.garmin.com/xmlschemas/TrackStatsExtension/v1 http://www8.garmin.com/xmlschemas/TrackStatsExtension.xsd http://www.garmin.com/xmlschemas/WaypointExtension/v1 http://www8.garmin.com/xmlschemas/WaypointExtensionv1.xsd http://www.garmin.com/xmlschemas/TrackPointExtension/v1 http://www.garmin.com/xmlschemas/TrackPointExtensionv1.xsd"><metadata><link href="http://www.garmin.com"><text>Garmin International</text></link><time>2023-06-28T14:11:42Z</time></metadata><trk><name>Current Track: 28 JUN 2023 09:57</name><extensions><gpxx:TrackExtension><gpxx:DisplayColor>Cyan</gpxx:DisplayColor></gpxx:TrackExtension><gpxtrkx:TrackStatsExtension><gpxtrkx:Distance>3747.000</gpxtrkx:Distance><gpxtrkx:TimerTime>7426</gpxtrkx:TimerTime><gpxtrkx:TotalElapsedTime>18856</gpxtrkx:TotalElapsedTime><gpxtrkx:MovingTime>5119</gpxtrkx:MovingTime><gpxtrkx:StoppedTime>2307</gpxtrkx:StoppedTime><gpxtrkx:MovingSpeed>0.732</gpxtrkx:MovingSpeed><gpxtrkx:MaxSpeed>1.504</gpxtrkx:MaxSpeed><gpxtrkx:MaxElevation>75.647</gpxtrkx:MaxElevation><gpxtrkx:MinElevation>-21.556</gpxtrkx:MinElevation><gpxtrkx:Ascent>164.000</gpxtrkx:Ascent><gpxtrkx:Descent>158.558</gpxtrkx:Descent><gpxtrkx:AvgAscentRate>0.056</gpxtrkx:AvgAscentRate><gpxtrkx:MaxAscentRate>0.140</gpxtrkx:MaxAscentRate><gpxtrkx:AvgDescentRate>0.068</gpxtrkx:AvgDescentRate><gpxtrkx:MaxDescentRate>-0.159</gpxtrkx:MaxDescentRate><gpxtrkx:Calories>197</gpxtrkx:Calories></gpxtrkx:TrackStatsExtension></extensions><trkseg><trkpt lat="52.0326440781" lon="-2.0524577703"><ele>-20.16</ele><time>2023-06-28T08:57:26Z</time></trkpt><trkpt lat="52.0326324273" lon="-2.0524710976"><ele>-19.73</ele><time>2023-06-28T08:57:50Z</time></trkpt><trkpt lat="52.0326030068" lon="-2.0525356382"><ele>-20.31</ele><time>2023-06-28T08:58:09Z</time></trkpt><trkpt lat="52.0325687248" lon="-2.0525538269"><ele>-20.32</ele><time>2023-06-28T08:58:29Z</time></trkpt><trkpt lat="52.0324666332" lon="-2.0526254922"><ele>-20.70</ele><time>2023-06-28T08:58:45Z</time></trkpt><trkpt lat="52.0324593410" lon="-2.0526790526"><ele>-20.70</ele><time>2023-06-28T08:59:05Z</time></trkpt><trkpt lat="52.0324668847" lon="-2.0527280029"><ele>-20.70</ele><time>2023-06-28T08:59:21Z</time></trkpt><trkpt lat="52.0324723329" lon="-2.0527341217"><ele>-20.70</ele><time>2023-06-28T08:59:41Z</time></trkpt><trkpt lat="52.0325367898" lon="-2.0528107323"><ele>-20.70</ele><time>2023-06-28T09:00:03Z</time></trkpt><trkpt lat="52.0326367859" lon="-2.0529179368"><ele>-20.70</ele><time>2023-06-28T09:00:24Z</time></trkpt><trkpt lat="52.0326966327" lon="-2.0529927034"><ele>-20.70</ele><time>2023-06-28T09:00:38Z</time></trkpt><trkpt lat="52.0328133088" lon="-2.0530052762"><ele>-20.47</ele><time>2023-06-28T09:00:56Z</time></trkpt><trkpt lat="52.0329023246" lon="-2.0530148316"><ele>-19.62</ele><time>2023-06-28T09:01:18Z</time></trkpt><trkpt lat="52.0329955313" lon="-2.0529994927"><ele>-19.76</ele><time>2023-06-28T09:01:32Z</time></trkpt><trkpt lat="52.0331275463" lon="-2.0529914461"><ele>-18.38</ele><time>2023-06-28T09:01:49Z</time></trkpt><trkpt lat="52.0332190767" lon="-2.0529336948"><ele>-17.90</ele><time>2023-06-28T09:02:00Z</time></trkpt><trkpt lat="52.0333790034" lon="-2.0527934656"><ele>-16.93</ele><time>2023-06-28T09:02:16Z</time></trkpt><trkpt lat="52.0334519260" lon="-2.0527410787"><ele>-16.04</ele><time>2023-06-28T09:02:28Z</time></trkpt><trkpt lat="52.0335604716" lon="-2.0526614506"><ele>-15.61</ele><time>2023-06-28T09:02:44Z</time></trkpt><trkpt lat="52.0335932449" lon="-2.0526577625"><ele>-14.91</ele><time>2023-06-28T09:02:58Z</time></trkpt><trkpt lat="52.0336329751" lon="-2.0526620373"><ele>-14.91</ele><time>2023-06-28T09:03:28Z</time></trkpt><trkpt lat="52.0336861163" lon="-2.0525572635"><ele>-14.46</ele><time>2023-06-28T09:03:46Z</time></trkpt><trkpt lat="52.0337387547" lon="-2.0525168628"><ele>-13.77</ele><time>2023-06-28T09:04:04Z</time></trkpt><trkpt lat="52.0338082407" lon="-2.0524617936"><ele>-13.85</ele><time>2023-06-28T09:04:22Z</time></trkpt><trkpt lat="52.0339178760" lon="-2.0523543376"><ele>-12.26</ele><time>2023-06-28T09:04:40Z</time></trkpt><trkpt lat="52.0340216439" lon="-2.0522773080"><ele>-11.79</ele><time>2023-06-28T09:04:55Z</time></trkpt><trkpt lat="52.0341925509" lon="-2.0522357337"><ele>-11.15</ele><time>2023-06-28T09:05:16Z</time></trkpt><trkpt lat="52.0343694929" lon="-2.0521974284"><ele>-11.03</ele><time>2023-06-28T09:05:39Z</time></trkpt><trkpt lat="52.0344140008" lon="-2.0522510726"><ele>-10.41</ele><time>2023-06-28T09:05:59Z</time></trkpt><trkpt lat="52.0344411582" lon="-2.0522886235"><ele>-10.14</ele><time>2023-06-28T09:06:21Z</time></trkpt><trkpt lat="52.0344364643" lon="-2.0522911381"><ele>-10.26</ele><time>2023-06-28T09:06:45Z</time></trkpt><trkpt lat="52.0344787091" lon="-2.0522814151"><ele>-10.17</ele><time>2023-06-28T09:07:09Z</time></trkpt><trkpt lat="52.0345119853" lon="-2.0522854384"><ele>-9.91</ele><time>2023-06-28T09:07:35Z</time></trkpt><trkpt lat="52.0345277432" lon="-2.0522504859"><ele>-10.11</ele><time>2023-06-28T09:07:52Z</time></trkpt><trkpt lat="52.0345745143" lon="-2.0522377454"><ele>-9.65</ele><time>2023-06-28T09:08:10Z</time></trkpt><trkpt lat="52.0346516278" lon="-2.0522220712"><ele>-8.66</ele><time>2023-06-28T09:08:28Z</time></trkpt><trkpt lat="52.0347398892" lon="-2.0521153696"><ele>-7.30</ele><time>2023-06-28T09:08:42Z</time></trkpt><trkpt lat="52.0348678809" lon="-2.0520603843"><ele>-5.62</ele><time>2023-06-28T09:08:55Z</time></trkpt><trkpt lat="52.0349726547" lon="-2.0520110149"><ele>-4.26</ele><time>2023-06-28T09:09:05Z</time></trkpt><trkpt lat="52.0350737404" lon="-2.0518979430"><ele>-2.58</ele><time>2023-06-28T09:09:18Z</time></trkpt><trkpt lat="52.0352572203" lon="-2.0518422034"><ele>-0.52</ele><time>2023-06-28T09:09:33Z</time></trkpt><trkpt lat="52.0353821944" lon="-2.0518896449"><ele>1.59</ele><time>2023-06-28T09:09:49Z</time></trkpt><trkpt lat="52.0353977848" lon="-2.0519106835"><ele>1.54</ele><time>2023-06-28T09:10:11Z</time></trkpt><trkpt lat="52.0354053285" lon="-2.0519147068"><ele>3.09</ele><time>2023-06-28T09:10:35Z</time></trkpt><trkpt lat="52.0354088489" lon="-2.0519260224"><ele>2.24</ele><time>2023-06-28T09:11:04Z</time></trkpt><trkpt lat="52.0354059152" lon="-2.0519271120"><ele>2.24</ele><time>2023-06-28T09:11:28Z</time></trkpt><trkpt lat="52.0353968628" lon="-2.0519641601"><ele>2.24</ele><time>2023-06-28T09:11:54Z</time></trkpt><trkpt lat="52.0354008861" lon="-2.0519670099"><ele>10.41</ele><time>2023-06-28T09:11:56Z</time></trkpt><trkpt lat="52.0354007185" lon="-2.0519664232"><ele>10.09</ele><time>2023-06-28T09:11:57Z</time></trkpt><trkpt lat="52.0354052447" lon="-2.0519608911"><ele>6.42</ele><time>2023-06-28T09:12:01Z</time></trkpt><trkpt lat="52.0354236010" lon="-2.0519658364"><ele>3.40</ele><time>2023-06-28T09:12:11Z</time></trkpt><trkpt lat="52.0354198292" lon="-2.0519478992"><ele>2.73</ele><time>2023-06-28T09:12:35Z</time></trkpt><trkpt lat="52.0354626607" lon="-2.0519525092"><ele>2.74</ele><time>2023-06-28T09:12:55Z</time></trkpt><trkpt lat="52.0355225075" lon="-2.0519519225"><ele>4.07</ele><time>2023-06-28T09:13:14Z</time></trkpt><trkpt lat="52.0356304664" lon="-2.0519445464"><ele>6.01</ele><time>2023-06-28T09:13:34Z</time></trkpt><trkpt lat="52.0356372558" lon="-2.0519342367"><ele>-5.63</ele><time>2023-06-28T09:13:46Z</time></trkpt><trkpt lat="52.0356375910" lon="-2.0519328117"><ele>-13.28</ele><time>2023-06-28T09:13:47Z</time></trkpt><trkpt lat="52.0356373396" lon="-2.0519314706"><ele>-17.14</ele><time>2023-06-28T09:13:48Z</time></trkpt><trkpt lat="52.0356332324" lon="-2.0519323926"><ele>-13.99</ele><time>2023-06-28T09:13:51Z</time></trkpt><trkpt lat="52.0356318075" lon="-2.0519322250"><ele>-13.99</ele><time>2023-06-28T09:13:52Z</time></trkpt><trkpt lat="52.0356302988" lon="-2.0519331470"><ele>-7.42</ele><time>2023-06-28T09:13:53Z</time></trkpt><trkpt lat="52.0356263593" lon="-2.0519343205"><ele>-2.39</ele><time>2023-06-28T09:13:55Z</time></trkpt><trkpt lat="52.0356247667" lon="-2.0519352425"><ele>0.86</ele><time>2023-06-28T09:13:57Z</time></trkpt><trkpt lat="52.0356242638" lon="-2.0519363321"><ele>4.00</ele><time>2023-06-28T09:14:01Z</time></trkpt><trkpt lat="52.0356255211" lon="-2.0519262739"><ele>11.06</ele><time>2023-06-28T09:14:24Z</time></trkpt><trkpt lat="52.0356276166" lon="-2.0519282855"><ele>19.40</ele><time>2023-06-28T09:14:25Z</time></trkpt><trkpt lat="52.0356318913" lon="-2.0519301295"><ele>25.71</ele><time>2023-06-28T09:14:26Z</time></trkpt><trkpt lat="52.0356349088" lon="-2.0519360807"><ele>28.90</ele><time>2023-06-28T09:14:27Z</time></trkpt><trkpt lat="52.0356521755" lon="-2.0519463904"><ele>29.65</ele><time>2023-06-28T09:14:29Z</time></trkpt><trkpt lat="52.0356666762" lon="-2.0519490726"><ele>23.94</ele><time>2023-06-28T09:14:31Z</time></trkpt><trkpt lat="52.0356738847" lon="-2.0519478153"><ele>20.90</ele><time>2023-06-28T09:14:32Z</time></trkpt><trkpt lat="52.0356824342" lon="-2.0519518387"><ele>15.97</ele><time>2023-06-28T09:14:34Z</time></trkpt><trkpt lat="52.0356853679" lon="-2.0519506652"><ele>12.65</ele><time>2023-06-28T09:14:36Z</time></trkpt><trkpt lat="52.0356848650" lon="-2.0519470610"><ele>9.30</ele><time>2023-06-28T09:14:39Z</time></trkpt><trkpt lat="52.0357314683" lon="-2.0519172214"><ele>7.22</ele><time>2023-06-28T09:14:53Z</time></trkpt><trkpt lat="52.0357841067" lon="-2.0519192331"><ele>7.24</ele><time>2023-06-28T09:14:58Z</time></trkpt><trkpt lat="52.0358580351" lon="-2.0519095939"><ele>8.08</ele><time>2023-06-28T09:15:09Z</time></trkpt><trkpt lat="52.0359515771" lon="-2.0518862084"><ele>8.50</ele><time>2023-06-28T09:15:20Z</time></trkpt><trkpt lat="52.0360916387" lon="-2.0518577937"><ele>9.60</ele><time>2023-06-28T09:15:37Z</time></trkpt><trkpt lat="52.0362094883" lon="-2.0518445503"><ele>10.38</ele><time>2023-06-28T09:15:52Z</time></trkpt><trkpt lat="52.0363182016" lon="-2.0518025570"><ele>11.53</ele><time>2023-06-28T09:16:13Z</time></trkpt><trkpt lat="52.0363450237" lon="-2.0517977793"><ele>11.85</ele><time>2023-06-28T09:16:37Z</time></trkpt><trkpt lat="52.0363912079" lon="-2.0517844521"><ele>12.25</ele><time>2023-06-28T09:16:55Z</time></trkpt><trkpt lat="52.0364929643" lon="-2.0517368428"><ele>12.52</ele><time>2023-06-28T09:17:10Z</time></trkpt><trkpt lat="52.0365897752" lon="-2.0516967773"><ele>13.59</ele><time>2023-06-28T09:17:24Z</time></trkpt><trkpt lat="52.0366846584" lon="-2.0516698714"><ele>14.54</ele><time>2023-06-28T09:17:40Z</time></trkpt><trkpt lat="52.0367571618" lon="-2.0516262855"><ele>15.16</ele><time>2023-06-28T09:17:50Z</time></trkpt><trkpt lat="52.0368409809" lon="-2.0515568834"><ele>15.50</ele><time>2023-06-28T09:18:05Z</time></trkpt><trkpt lat="52.0369633567" lon="-2.0515148062"><ele>16.17</ele><time>2023-06-28T09:18:22Z</time></trkpt><trkpt lat="52.0369951241" lon="-2.0514433086"><ele>16.12</ele><time>2023-06-28T09:18:40Z</time></trkpt><trkpt lat="52.0370629337" lon="-2.0514748245"><ele>17.27</ele><time>2023-06-28T09:19:04Z</time></trkpt><trkpt lat="52.0370791107" lon="-2.0514726453"><ele>17.26</ele><time>2023-06-28T09:19:32Z</time></trkpt><trkpt lat="52.0371439867" lon="-2.0514148939"><ele>17.59</ele><time>2023-06-28T09:19:46Z</time></trkpt><trkpt lat="52.0371630974" lon="-2.0514001418"><ele>17.56</ele><time>2023-06-28T09:19:48Z</time></trkpt><trkpt lat="52.0372244529" lon="-2.0513850544"><ele>17.95</ele><time>2023-06-28T09:19:56Z</time></trkpt><trkpt lat="52.0372540411" lon="-2.0513762534"><ele>17.93</ele><time>2023-06-28T09:19:59Z</time></trkpt><trkpt lat="52.0373907499" lon="-2.0513075218"><ele>18.48</ele><time>2023-06-28T09:20:14Z</time></trkpt><trkpt lat="52.0375192445" lon="-2.0512558892"><ele>19.20</ele><time>2023-06-28T09:20:29Z</time></trkpt><trkpt lat="52.0376572106" lon="-2.0511821285"><ele>20.04</ele><time>2023-06-28T09:20:51Z</time></trkpt><trkpt lat="52.0377759822" lon="-2.0511159953"><ele>20.71</ele><time>2023-06-28T09:21:07Z</time></trkpt><trkpt lat="52.0378785767" lon="-2.0510656200"><ele>21.47</ele><time>2023-06-28T09:21:22Z</time></trkpt><trkpt lat="52.0378924068" lon="-2.0510590822"><ele>21.55</ele><time>2023-06-28T09:21:24Z</time></trkpt><trkpt lat="52.0380164590" lon="-2.0510044321"><ele>22.38</ele><time>2023-06-28T09:21:42Z</time></trkpt><trkpt lat="52.0381177124" lon="-2.0509614330"><ele>23.07</ele><time>2023-06-28T09:21:57Z</time></trkpt><trkpt lat="52.0382343885" lon="-2.0508857444"><ele>23.98</ele><time>2023-06-28T09:22:15Z</time></trkpt><trkpt lat="52.0382954925" lon="-2.0508616045"><ele>24.76</ele><time>2023-06-28T09:22:33Z</time></trkpt><trkpt lat="52.0383167826" lon="-2.0508312620"><ele>25.11</ele><time>2023-06-28T09:22:57Z</time></trkpt><trkpt lat="52.0383741148" lon="-2.0508170966"><ele>25.34</ele><time>2023-06-28T09:23:19Z</time></trkpt><trkpt lat="52.0383969974" lon="-2.0508525521"><ele>26.64</ele><time>2023-06-28T09:23:45Z</time></trkpt><trkpt lat="52.0384036191" lon="-2.0508101396"><ele>26.81</ele><time>2023-06-28T09:24:03Z</time></trkpt><trkpt lat="52.0384153537" lon="-2.0508027636"><ele>26.59</ele><time>2023-06-28T09:24:32Z</time></trkpt><trkpt lat="52.0383750368" lon="-2.0507857483"><ele>26.74</ele><time>2023-06-28T09:24:57Z</time></trkpt><trkpt lat="52.0383917168" lon="-2.0507683139"><ele>26.73</ele><time>2023-06-28T09:25:20Z</time></trkpt><trkpt lat="52.0383650623" lon="-2.0506586786"><ele>26.71</ele><time>2023-06-28T09:25:38Z</time></trkpt><trkpt lat="52.0383206382" lon="-2.0504530706"><ele>26.71</ele><time>2023-06-28T09:25:57Z</time></trkpt><trkpt lat="52.0382669102" lon="-2.0502397511"><ele>26.71</ele><time>2023-06-28T09:26:18Z</time></trkpt><trkpt lat="52.0382814948" lon="-2.0501860231"><ele>27.06</ele><time>2023-06-28T09:26:38Z</time></trkpt><trkpt lat="52.0382691734" lon="-2.0501804911"><ele>27.08</ele><time>2023-06-28T09:27:18Z</time></trkpt><trkpt lat="52.0382215641" lon="-2.0500464644"><ele>27.00</ele><time>2023-06-28T09:27:27Z</time></trkpt><trkpt lat="52.0382026210" lon="-2.0498828497"><ele>27.66</ele><time>2023-06-28T09:27:43Z</time></trkpt><trkpt lat="52.0381763857" lon="-2.0497174747"><ele>27.81</ele><time>2023-06-28T09:28:07Z</time></trkpt><trkpt lat="52.0381217357" lon="-2.0495105255"><ele>28.46</ele><time>2023-06-28T09:28:21Z</time></trkpt><trkpt lat="52.0380743779" lon="-2.0492581464"><ele>28.80</ele><time>2023-06-28T09:28:42Z</time></trkpt><trkpt lat="52.0380331390" lon="-2.0490565617"><ele>28.74</ele><time>2023-06-28T09:29:02Z</time></trkpt><trkpt lat="52.0380222425" lon="-2.0489466749"><ele>28.49</ele><time>2023-06-28T09:29:14Z</time></trkpt><trkpt lat="52.0380107593" lon="-2.0488996524"><ele>28.32</ele><time>2023-06-28T09:29:17Z</time></trkpt><trkpt lat="52.0379704423" lon="-2.0487094671"><ele>26.88</ele><time>2023-06-28T09:29:35Z</time></trkpt><trkpt lat="52.0379226655" lon="-2.0484966505"><ele>25.29</ele><time>2023-06-28T09:29:56Z</time></trkpt><trkpt lat="52.0379191451" lon="-2.0484815631"><ele>25.18</ele><time>2023-06-28T09:29:57Z</time></trkpt><trkpt lat="52.0378688537" lon="-2.0482753683"><ele>23.01</ele><time>2023-06-28T09:30:18Z</time></trkpt><trkpt lat="52.0379241742" lon="-2.0481752045"><ele>22.87</ele><time>2023-06-28T09:30:34Z</time></trkpt><trkpt lat="52.0380405150" lon="-2.0480540860"><ele>23.65</ele><time>2023-06-28T09:30:53Z</time></trkpt><trkpt lat="52.0381120965" lon="-2.0480047166"><ele>24.23</ele><time>2023-06-28T09:31:08Z</time></trkpt><trkpt lat="52.0382421836" lon="-2.0479358174"><ele>25.14</ele><time>2023-06-28T09:31:24Z</time></trkpt><trkpt lat="52.0383062214" lon="-2.0478847716"><ele>25.62</ele><time>2023-06-28T09:31:35Z</time></trkpt><trkpt lat="52.0384581853" lon="-2.0478204824"><ele>27.03</ele><time>2023-06-28T09:31:57Z</time></trkpt><trkpt lat="52.0385988336" lon="-2.0477799978"><ele>27.89</ele><time>2023-06-28T09:32:16Z</time></trkpt><trkpt lat="52.0387379732" lon="-2.0477877930"><ele>29.03</ele><time>2023-06-28T09:32:35Z</time></trkpt><trkpt lat="52.0388457645" lon="-2.0478157885"><ele>29.53</ele><time>2023-06-28T09:32:55Z</time></trkpt><trkpt lat="52.0389745105" lon="-2.0476971008"><ele>29.75</ele><time>2023-06-28T09:33:16Z</time></trkpt><trkpt lat="52.0390016679" lon="-2.0474763215"><ele>30.61</ele><time>2023-06-28T09:33:37Z</time></trkpt><trkpt lat="52.0390502829" lon="-2.0473525207"><ele>31.23</ele><time>2023-06-28T09:33:56Z</time></trkpt><trkpt lat="52.0390510373" lon="-2.0473298896"><ele>31.47</ele><time>2023-06-28T09:34:19Z</time></trkpt><trkpt lat="52.0390368719" lon="-2.0473842043"><ele>31.22</ele><time>2023-06-28T09:34:45Z</time></trkpt><trkpt lat="52.0390766021" lon="-2.0474504214"><ele>31.30</ele><time>2023-06-28T09:35:08Z</time></trkpt><trkpt lat="52.0390752610" lon="-2.0474452246"><ele>31.46</ele><time>2023-06-28T09:35:26Z</time></trkpt><trkpt lat="52.0390108041" lon="-2.0473061688"><ele>31.46</ele><time>2023-06-28T09:35:55Z</time></trkpt><trkpt lat="52.0389919449" lon="-2.0471234433"><ele>31.46</ele><time>2023-06-28T09:36:17Z</time></trkpt><trkpt lat="52.0389994886" lon="-2.0469746646"><ele>33.81</ele><time>2023-06-28T09:36:30Z</time></trkpt><trkpt lat="52.0389896818" lon="-2.0469065197"><ele>35.30</ele><time>2023-06-28T09:36:42Z</time></trkpt><trkpt lat="52.0389851555" lon="-2.0468004886"><ele>36.69</ele><time>2023-06-28T09:36:55Z</time></trkpt><trkpt lat="52.0389627758" lon="-2.0466451719"><ele>37.91</ele><time>2023-06-28T09:37:10Z</time></trkpt><trkpt lat="52.0389529690" lon="-2.0464543160"><ele>39.41</ele><time>2023-06-28T09:37:33Z</time></trkpt><trkpt lat="52.0389261469" lon="-2.0463325270"><ele>41.26</ele><time>2023-06-28T09:37:51Z</time></trkpt><trkpt lat="52.0388927031" lon="-2.0462023560"><ele>42.30</ele><time>2023-06-28T09:38:08Z</time></trkpt><trkpt lat="52.0388742629" lon="-2.0460905414"><ele>43.32</ele><time>2023-06-28T09:38:23Z</time></trkpt><trkpt lat="52.0388682280" lon="-2.0459607895"><ele>44.42</ele><time>2023-06-28T09:38:37Z</time></trkpt><trkpt lat="52.0388460997" lon="-2.0458182972"><ele>45.72</ele><time>2023-06-28T09:38:52Z</time></trkpt><trkpt lat="52.0387918688" lon="-2.0456079114"><ele>46.97</ele><time>2023-06-28T09:39:12Z</time></trkpt><trkpt lat="52.0387969818" lon="-2.0455562789"><ele>47.89</ele><time>2023-06-28T09:39:35Z</time></trkpt><trkpt lat="52.0387896057" lon="-2.0453536883"><ele>48.14</ele><time>2023-06-28T09:39:54Z</time></trkpt><trkpt lat="52.0387281664" lon="-2.0451390278"><ele>49.71</ele><time>2023-06-28T09:40:13Z</time></trkpt><trkpt lat="52.0386789646" lon="-2.0450028218"><ele>50.75</ele><time>2023-06-28T09:40:28Z</time></trkpt><trkpt lat="52.0386385638" lon="-2.0448418893"><ele>51.99</ele><time>2023-06-28T09:40:45Z</time></trkpt><trkpt lat="52.0386061259" lon="-2.0446039271"><ele>52.66</ele><time>2023-06-28T09:41:05Z</time></trkpt><trkpt lat="52.0385299344" lon="-2.0443533082"><ele>53.63</ele><time>2023-06-28T09:41:32Z</time></trkpt><trkpt lat="52.0384962391" lon="-2.0441759471"><ele>54.86</ele><time>2023-06-28T09:41:53Z</time></trkpt><trkpt lat="52.0385135897" lon="-2.0440907869"><ele>55.76</ele><time>2023-06-28T09:42:15Z</time></trkpt><trkpt lat="52.0384998433" lon="-2.0439044572"><ele>56.17</ele><time>2023-06-28T09:42:38Z</time></trkpt><trkpt lat="52.0384303574" lon="-2.0435973443"><ele>57.98</ele><time>2023-06-28T09:42:59Z</time></trkpt><trkpt lat="52.0383809041" lon="-2.0433700271"><ele>58.91</ele><time>2023-06-28T09:43:16Z</time></trkpt><trkpt lat="52.0383574348" lon="-2.0430899039"><ele>59.47</ele><time>2023-06-28T09:43:37Z</time></trkpt><trkpt lat="52.0383207221" lon="-2.0427729003"><ele>59.94</ele><time>2023-06-28T09:44:02Z</time></trkpt><trkpt lat="52.0382980909" lon="-2.0425123069"><ele>60.55</ele><time>2023-06-28T09:44:25Z</time></trkpt><trkpt lat="52.0382995158" lon="-2.0422639512"><ele>60.24</ele><time>2023-06-28T09:44:44Z</time></trkpt><trkpt lat="52.0382969175" lon="-2.0420880988"><ele>60.33</ele><time>2023-06-28T09:45:03Z</time></trkpt><trkpt lat="52.0382529125" lon="-2.0418072212"><ele>60.64</ele><time>2023-06-28T09:45:27Z</time></trkpt><trkpt lat="52.0382673293" lon="-2.0417126734"><ele>61.44</ele><time>2023-06-28T09:45:49Z</time></trkpt><trkpt lat="52.0382753760" lon="-2.0416789781"><ele>61.30</ele><time>2023-06-28T09:46:21Z</time></trkpt><trkpt lat="52.0382638089" lon="-2.0415988471"><ele>61.31</ele><time>2023-06-28T09:46:35Z</time></trkpt><trkpt lat="52.0382447820" lon="-2.0413532574"><ele>62.79</ele><time>2023-06-28T09:46:55Z</time></trkpt><trkpt lat="52.0382218994" lon="-2.0412302110"><ele>64.06</ele><time>2023-06-28T09:47:07Z</time></trkpt><trkpt lat="52.0381944068" lon="-2.0410142932"><ele>65.33</ele><time>2023-06-28T09:47:28Z</time></trkpt><trkpt lat="52.0381948259" lon="-2.0409955177"><ele>65.36</ele><time>2023-06-28T09:47:59Z</time></trkpt><trkpt lat="52.0382009447" lon="-2.0409537759"><ele>65.43</ele><time>2023-06-28T09:48:46Z</time></trkpt><trkpt lat="52.0381895453" lon="-2.0407867245"><ele>65.40</ele><time>2023-06-28T09:49:02Z</time></trkpt><trkpt lat="52.0381740388" lon="-2.0404408034"><ele>65.82</ele><time>2023-06-28T09:49:26Z</time></trkpt><trkpt lat="52.0381423552" lon="-2.0401797909"><ele>66.45</ele><time>2023-06-28T09:49:47Z</time></trkpt><trkpt lat="52.0381371584" lon="-2.0399087202"><ele>66.35</ele><time>2023-06-28T09:50:06Z</time></trkpt><trkpt lat="52.0381110068" lon="-2.0396185387"><ele>66.33</ele><time>2023-06-28T09:50:30Z</time></trkpt><trkpt lat="52.0380907226" lon="-2.0394063927"><ele>66.47</ele><time>2023-06-28T09:50:45Z</time></trkpt><trkpt lat="52.0380903035" lon="-2.0391222462"><ele>66.48</ele><time>2023-06-28T09:51:03Z</time></trkpt><trkpt lat="52.0380882919" lon="-2.0389646664"><ele>66.78</ele><time>2023-06-28T09:51:17Z</time></trkpt><trkpt lat="52.0380851068" lon="-2.0387527719"><ele>66.85</ele><time>2023-06-28T09:51:32Z</time></trkpt><trkpt lat="52.0380741265" lon="-2.0385838766"><ele>67.83</ele><time>2023-06-28T09:51:48Z</time></trkpt><trkpt lat="52.0379843563" lon="-2.0384687092"><ele>67.75</ele><time>2023-06-28T09:52:06Z</time></trkpt><trkpt lat="52.0379168820" lon="-2.0385008119"><ele>66.95</ele><time>2023-06-28T09:52:25Z</time></trkpt><trkpt lat="52.0379315503" lon="-2.0384797733"><ele>66.95</ele><time>2023-06-28T09:52:54Z</time></trkpt><trkpt lat="52.0379179716" lon="-2.0384802762"><ele>29.97</ele><time>2023-06-28T09:53:16Z</time></trkpt><trkpt lat="52.0379165467" lon="-2.0384807792"><ele>32.99</ele><time>2023-06-28T09:53:17Z</time></trkpt><trkpt lat="52.0379160438" lon="-2.0384806115"><ele>38.17</ele><time>2023-06-28T09:53:18Z</time></trkpt><trkpt lat="52.0379149541" lon="-2.0384806953"><ele>43.14</ele><time>2023-06-28T09:53:19Z</time></trkpt><trkpt lat="52.0379148703" lon="-2.0384807792"><ele>48.44</ele><time>2023-06-28T09:53:20Z</time></trkpt><trkpt lat="52.0379141998" lon="-2.0384812821"><ele>52.82</ele><time>2023-06-28T09:53:21Z</time></trkpt><trkpt lat="52.0379132777" lon="-2.0384819526"><ele>50.68</ele><time>2023-06-28T09:53:22Z</time></trkpt><trkpt lat="52.0379110146" lon="-2.0384837128"><ele>54.49</ele><time>2023-06-28T09:53:24Z</time></trkpt><trkpt lat="52.0379090030" lon="-2.0384853892"><ele>58.69</ele><time>2023-06-28T09:53:26Z</time></trkpt><trkpt lat="52.0379065722" lon="-2.0384862274"><ele>62.27</ele><time>2023-06-28T09:53:31Z</time></trkpt><trkpt lat="52.0379060693" lon="-2.0384848863"><ele>70.63</ele><time>2023-06-28T09:53:33Z</time></trkpt><trkpt lat="52.0379052311" lon="-2.0384837128"><ele>74.59</ele><time>2023-06-28T09:53:34Z</time></trkpt><trkpt lat="52.0379031356" lon="-2.0384815335"><ele>77.62</ele><time>2023-06-28T09:53:36Z</time></trkpt><trkpt lat="52.0378995314" lon="-2.0384788513"><ele>73.89</ele><time>2023-06-28T09:53:39Z</time></trkpt><trkpt lat="52.0378930774" lon="-2.0384701341"><ele>70.34</ele><time>2023-06-28T09:53:43Z</time></trkpt><trkpt lat="52.0378911495" lon="-2.0384694636"><ele>70.05</ele><time>2023-06-28T09:53:44Z</time></trkpt><trkpt lat="52.0378862880" lon="-2.0384704694"><ele>73.15</ele><time>2023-06-28T09:53:48Z</time></trkpt><trkpt lat="52.0378863718" lon="-2.0384715591"><ele>73.93</ele><time>2023-06-28T09:53:50Z</time></trkpt><trkpt lat="52.0378846955" lon="-2.0384770073"><ele>70.75</ele><time>2023-06-28T09:53:54Z</time></trkpt><trkpt lat="52.0378869586" lon="-2.0384723973"><ele>66.29</ele><time>2023-06-28T09:53:57Z</time></trkpt><trkpt lat="52.0378881320" lon="-2.0384721458"><ele>66.29</ele><time>2023-06-28T09:53:58Z</time></trkpt><trkpt lat="52.0377717074" lon="-2.0384504367"><ele>66.02</ele><time>2023-06-28T09:54:11Z</time></trkpt><trkpt lat="52.0377604757" lon="-2.0384183340"><ele>64.52</ele><time>2023-06-28T09:54:31Z</time></trkpt><trkpt lat="52.0377540216" lon="-2.0384069346"><ele>64.72</ele><time>2023-06-28T09:54:57Z</time></trkpt><trkpt lat="52.0377705339" lon="-2.0384321641"><ele>64.50</ele><time>2023-06-28T09:55:23Z</time></trkpt><trkpt lat="52.0377800893" lon="-2.0384339243"><ele>64.50</ele><time>2023-06-28T09:55:50Z</time></trkpt><trkpt lat="52.0377795864" lon="-2.0384252910"><ele>64.50</ele><time>2023-06-28T09:56:17Z</time></trkpt><trkpt lat="52.0377791673" lon="-2.0384230278"><ele>40.05</ele><time>2023-06-28T09:56:19Z</time></trkpt><trkpt lat="52.0377790835" lon="-2.0384244528"><ele>42.00</ele><time>2023-06-28T09:56:20Z</time></trkpt><trkpt lat="52.0377796702" lon="-2.0384252910"><ele>45.44</ele><time>2023-06-28T09:56:21Z</time></trkpt><trkpt lat="52.0377805922" lon="-2.0384251233"><ele>49.68</ele><time>2023-06-28T09:56:22Z</time></trkpt><trkpt lat="52.0377808437" lon="-2.0384260453"><ele>53.68</ele><time>2023-06-28T09:56:23Z</time></trkpt><trkpt lat="52.0377801731" lon="-2.0384277217"><ele>56.84</ele><time>2023-06-28T09:56:24Z</time></trkpt><trkpt lat="52.0377808437" lon="-2.0384287275"><ele>55.29</ele><time>2023-06-28T09:56:25Z</time></trkpt><trkpt lat="52.0377803408" lon="-2.0384333376"><ele>58.80</ele><time>2023-06-28T09:56:28Z</time></trkpt><trkpt lat="52.0377795864" lon="-2.0384371933"><ele>61.95</ele><time>2023-06-28T09:56:32Z</time></trkpt><trkpt lat="52.0377795864" lon="-2.0384387858"><ele>64.43</ele><time>2023-06-28T09:56:36Z</time></trkpt><trkpt lat="52.0377800893" lon="-2.0384465810"><ele>69.86</ele><time>2023-06-28T09:56:58Z</time></trkpt><trkpt lat="52.0377822686" lon="-2.0384462457"><ele>73.16</ele><time>2023-06-28T09:57:01Z</time></trkpt><trkpt lat="52.0377824362" lon="-2.0384458266"><ele>70.12</ele><time>2023-06-28T09:57:02Z</time></trkpt><trkpt lat="52.0377815980" lon="-2.0384461619"><ele>64.89</ele><time>2023-06-28T09:57:03Z</time></trkpt><trkpt lat="52.0377812628" lon="-2.0384458266"><ele>61.44</ele><time>2023-06-28T09:57:04Z</time></trkpt><trkpt lat="52.0377815142" lon="-2.0384507719"><ele>65.05</ele><time>2023-06-28T09:57:19Z</time></trkpt><trkpt lat="52.0377818495" lon="-2.0384547953"><ele>68.52</ele><time>2023-06-28T09:57:20Z</time></trkpt><trkpt lat="52.0377830230" lon="-2.0384544600"><ele>72.88</ele><time>2023-06-28T09:57:22Z</time></trkpt><trkpt lat="52.0377826877" lon="-2.0384549629"><ele>73.69</ele><time>2023-06-28T09:57:24Z</time></trkpt><trkpt lat="52.0377808437" lon="-2.0384583157"><ele>66.77</ele><time>2023-06-28T09:57:26Z</time></trkpt><trkpt lat="52.0377806760" lon="-2.0384590700"><ele>61.59</ele><time>2023-06-28T09:57:27Z</time></trkpt><trkpt lat="52.0377803408" lon="-2.0384599920"><ele>57.40</ele><time>2023-06-28T09:57:28Z</time></trkpt><trkpt lat="52.0377791673" lon="-2.0384616684"><ele>53.87</ele><time>2023-06-28T09:57:30Z</time></trkpt><trkpt lat="52.0377783291" lon="-2.0384624228"><ele>57.17</ele><time>2023-06-28T09:57:34Z</time></trkpt><trkpt lat="52.0377772395" lon="-2.0384633448"><ele>64.92</ele><time>2023-06-28T09:57:36Z</time></trkpt><trkpt lat="52.0377764013" lon="-2.0384640153"><ele>70.03</ele><time>2023-06-28T09:57:37Z</time></trkpt><trkpt lat="52.0377754793" lon="-2.0384655241"><ele>74.35</ele><time>2023-06-28T09:57:39Z</time></trkpt><trkpt lat="52.0377800893" lon="-2.0384663623"><ele>71.09</ele><time>2023-06-28T09:57:44Z</time></trkpt><trkpt lat="52.0377801731" lon="-2.0384687930"><ele>65.10</ele><time>2023-06-28T09:57:47Z</time></trkpt><trkpt lat="52.0377801731" lon="-2.0384691283"><ele>60.69</ele><time>2023-06-28T09:57:48Z</time></trkpt><trkpt lat="52.0377805084" lon="-2.0384695474"><ele>57.37</ele><time>2023-06-28T09:57:49Z</time></trkpt><trkpt lat="52.0377815980" lon="-2.0384715591"><ele>54.71</ele><time>2023-06-28T09:57:52Z</time></trkpt><trkpt lat="52.0377818495" lon="-2.0384730678"><ele>58.28</ele><time>2023-06-28T09:57:54Z</time></trkpt><trkpt lat="52.0377821848" lon="-2.0384745765"><ele>61.92</ele><time>2023-06-28T09:57:56Z</time></trkpt><trkpt lat="52.0377833582" lon="-2.0384771749"><ele>63.36</ele><time>2023-06-28T09:57:59Z</time></trkpt><trkpt lat="52.0377754793" lon="-2.0384855568"><ele>66.49</ele><time>2023-06-28T09:58:18Z</time></trkpt><trkpt lat="52.0377688576" lon="-2.0384593215"><ele>70.53</ele><time>2023-06-28T09:58:22Z</time></trkpt><trkpt lat="52.0377640799" lon="-2.0384610817"><ele>67.00</ele><time>2023-06-28T09:58:31Z</time></trkpt><trkpt lat="52.0377707016" lon="-2.0384780131"><ele>64.22</ele><time>2023-06-28T09:58:36Z</time></trkpt><trkpt lat="52.0377746411" lon="-2.0384842157"><ele>58.77</ele><time>2023-06-28T09:58:41Z</time></trkpt><trkpt lat="52.0377727970" lon="-2.0384836290"><ele>49.63</ele><time>2023-06-28T09:58:42Z</time></trkpt><trkpt lat="52.0377714559" lon="-2.0384828746"><ele>43.31</ele><time>2023-06-28T09:58:43Z</time></trkpt><trkpt lat="52.0377713721" lon="-2.0384834614"><ele>40.11</ele><time>2023-06-28T09:58:44Z</time></trkpt><trkpt lat="52.0377724618" lon="-2.0384838805"><ele>38.98</ele><time>2023-06-28T09:58:46Z</time></trkpt><trkpt lat="52.0377723780" lon="-2.0384848863"><ele>45.63</ele><time>2023-06-28T09:58:48Z</time></trkpt><trkpt lat="52.0377721265" lon="-2.0384855568"><ele>49.48</ele><time>2023-06-28T09:58:49Z</time></trkpt><trkpt lat="52.0377718750" lon="-2.0384863112"><ele>52.92</ele><time>2023-06-28T09:58:50Z</time></trkpt><trkpt lat="52.0377715398" lon="-2.0384874847"><ele>57.65</ele><time>2023-06-28T09:58:52Z</time></trkpt><trkpt lat="52.0377699472" lon="-2.0384884067"><ele>61.19</ele><time>2023-06-28T09:58:55Z</time></trkpt><trkpt lat="52.0377822686" lon="-2.0384835452"><ele>65.05</ele><time>2023-06-28T09:59:00Z</time></trkpt><trkpt lat="52.0377876330" lon="-2.0384844672"><ele>69.27</ele><time>2023-06-28T09:59:02Z</time></trkpt><trkpt lat="52.0378090069" lon="-2.0384908374"><ele>66.00</ele><time>2023-06-28T09:59:13Z</time></trkpt><trkpt lat="52.0378198195" lon="-2.0384729002"><ele>64.91</ele><time>2023-06-28T09:59:45Z</time></trkpt><trkpt lat="52.0378178917" lon="-2.0384705532"><ele>62.52</ele><time>2023-06-28T09:59:51Z</time></trkpt><trkpt lat="52.0378318056" lon="-2.0384560525"><ele>66.35</ele><time>2023-06-28T10:00:03Z</time></trkpt><trkpt lat="52.0378301293" lon="-2.0384565555"><ele>69.80</ele><time>2023-06-28T10:00:04Z</time></trkpt><trkpt lat="52.0378267765" lon="-2.0384556334"><ele>73.95</ele><time>2023-06-28T10:00:06Z</time></trkpt><trkpt lat="52.0378154609" lon="-2.0384616684"><ele>70.13</ele><time>2023-06-28T10:00:12Z</time></trkpt><trkpt lat="52.0378137846" lon="-2.0384620037"><ele>61.87</ele><time>2023-06-28T10:00:13Z</time></trkpt><trkpt lat="52.0378098451" lon="-2.0384635963"><ele>59.05</ele><time>2023-06-28T10:00:16Z</time></trkpt><trkpt lat="52.0378042292" lon="-2.0384650212"><ele>62.09</ele><time>2023-06-28T10:00:21Z</time></trkpt><trkpt lat="52.0378023852" lon="-2.0384654403"><ele>62.82</ele><time>2023-06-28T10:00:23Z</time></trkpt><trkpt lat="52.0377975237" lon="-2.0384661946"><ele>65.93</ele><time>2023-06-28T10:00:29Z</time></trkpt><trkpt lat="52.0377968531" lon="-2.0384665299"><ele>66.13</ele><time>2023-06-28T10:00:30Z</time></trkpt><trkpt lat="52.0377929974" lon="-2.0384723134"><ele>62.70</ele><time>2023-06-28T10:00:44Z</time></trkpt><trkpt lat="52.0377731323" lon="-2.0384407975"><ele>67.05</ele><time>2023-06-28T10:00:50Z</time></trkpt><trkpt lat="52.0377733838" lon="-2.0384299010"><ele>68.99</ele><time>2023-06-28T10:00:53Z</time></trkpt><trkpt lat="52.0377705339" lon="-2.0384353492"><ele>65.95</ele><time>2023-06-28T10:00:59Z</time></trkpt><trkpt lat="52.0377818495" lon="-2.0384534542"><ele>64.03</ele><time>2023-06-28T10:01:02Z</time></trkpt><trkpt lat="52.0377950091" lon="-2.0384710561"><ele>67.54</ele><time>2023-06-28T10:01:06Z</time></trkpt><trkpt lat="52.0377942547" lon="-2.0384687092"><ele>68.32</ele><time>2023-06-28T10:01:08Z</time></trkpt><trkpt lat="52.0377821848" lon="-2.0384585671"><ele>65.23</ele><time>2023-06-28T10:01:15Z</time></trkpt><trkpt lat="52.0377790835" lon="-2.0384666137"><ele>64.25</ele><time>2023-06-28T10:01:47Z</time></trkpt><trkpt lat="52.0377877168" lon="-2.0384556334"><ele>64.25</ele><time>2023-06-28T10:02:13Z</time></trkpt><trkpt lat="52.0377724618" lon="-2.0384672843"><ele>64.25</ele><time>2023-06-28T10:03:30Z</time></trkpt><trkpt lat="52.0377703663" lon="-2.0384674519"><ele>64.25</ele><time>2023-06-28T10:04:05Z</time></trkpt><trkpt lat="52.0377642475" lon="-2.0383994747"><ele>64.25</ele><time>2023-06-28T10:04:30Z</time></trkpt><trkpt lat="52.0377758984" lon="-2.0384360198"><ele>64.25</ele><time>2023-06-28T10:04:59Z</time></trkpt><trkpt lat="52.0377836097" lon="-2.0384262968"><ele>74.03</ele><time>2023-06-28T10:05:28Z</time></trkpt><trkpt lat="52.0377826039" lon="-2.0384247880"><ele>73.19</ele><time>2023-06-28T10:05:29Z</time></trkpt><trkpt lat="52.0377812628" lon="-2.0384198427"><ele>69.61</ele><time>2023-06-28T10:05:32Z</time></trkpt><trkpt lat="52.0377821848" lon="-2.0384238660"><ele>68.44</ele><time>2023-06-28T10:05:34Z</time></trkpt><trkpt lat="52.0377826877" lon="-2.0384263806"><ele>63.75</ele><time>2023-06-28T10:05:37Z</time></trkpt><trkpt lat="52.0377808437" lon="-2.0384299010"><ele>60.54</ele><time>2023-06-28T10:05:40Z</time></trkpt><trkpt lat="52.0377867948" lon="-2.0384333376"><ele>63.65</ele><time>2023-06-28T10:05:49Z</time></trkpt><trkpt lat="52.0377730485" lon="-2.0384614170"><ele>64.46</ele><time>2023-06-28T10:07:34Z</time></trkpt><trkpt lat="52.0377686899" lon="-2.0384603273"><ele>64.46</ele><time>2023-06-28T10:08:50Z</time></trkpt><trkpt lat="52.0377657562" lon="-2.0384618361"><ele>64.46</ele><time>2023-06-28T10:09:56Z</time></trkpt><trkpt lat="52.0377396047" lon="-2.0384097006"><ele>64.46</ele><time>2023-06-28T10:10:28Z</time></trkpt><trkpt lat="52.0377648342" lon="-2.0384415518"><ele>64.46</ele><time>2023-06-28T10:10:50Z</time></trkpt><trkpt lat="52.0377754793" lon="-2.0384235308"><ele>64.46</ele><time>2023-06-28T10:11:12Z</time></trkpt><trkpt lat="52.0377749763" lon="-2.0384496823"><ele>64.46</ele><time>2023-06-28T10:11:47Z</time></trkpt><trkpt lat="52.0377692766" lon="-2.0384425577"><ele>64.46</ele><time>2023-06-28T10:12:19Z</time></trkpt><trkpt lat="52.0377575420" lon="-2.0384468324"><ele>64.46</ele><time>2023-06-28T10:12:36Z</time></trkpt><trkpt lat="52.0377514232" lon="-2.0384455752"><ele>64.46</ele><time>2023-06-28T10:12:59Z</time></trkpt><trkpt lat="52.0377575420" lon="-2.0384169929"><ele>64.46</ele><time>2023-06-28T10:13:24Z</time></trkpt><trkpt lat="52.0377682708" lon="-2.0384069346"><ele>64.46</ele><time>2023-06-28T10:13:30Z</time></trkpt><trkpt lat="52.0377650019" lon="-2.0384157356"><ele>64.46</ele><time>2023-06-28T10:13:53Z</time></trkpt><trkpt lat="52.0377784129" lon="-2.0384341758"><ele>64.46</ele><time>2023-06-28T10:14:18Z</time></trkpt><trkpt lat="52.0377693605" lon="-2.0384379476"><ele>64.46</ele><time>2023-06-28T10:14:43Z</time></trkpt><trkpt lat="52.0376895647" lon="-2.0385199226"><ele>64.46</ele><time>2023-06-28T10:15:01Z</time></trkpt><trkpt lat="52.0376031473" lon="-2.0385301486"><ele>64.46</ele><time>2023-06-28T10:15:16Z</time></trkpt><trkpt lat="52.0375531074" lon="-2.0385096967"><ele>64.46</ele><time>2023-06-28T10:15:31Z</time></trkpt><trkpt lat="52.0375261176" lon="-2.0385296457"><ele>64.46</ele><time>2023-06-28T10:15:58Z</time></trkpt><trkpt lat="52.0374299772" lon="-2.0385553781"><ele>64.46</ele><time>2023-06-28T10:16:14Z</time></trkpt><trkpt lat="52.0373674482" lon="-2.0385563839"><ele>64.46</ele><time>2023-06-28T10:16:22Z</time></trkpt><trkpt lat="52.0373308193" lon="-2.0385683700"><ele>63.19</ele><time>2023-06-28T10:16:26Z</time></trkpt><trkpt lat="52.0371798612" lon="-2.0385334175"><ele>61.69</ele><time>2023-06-28T10:16:43Z</time></trkpt><trkpt lat="52.0370674599" lon="-2.0384969562"><ele>60.43</ele><time>2023-06-28T10:16:58Z</time></trkpt><trkpt lat="52.0369805396" lon="-2.0384673681"><ele>59.76</ele><time>2023-06-28T10:17:11Z</time></trkpt><trkpt lat="52.0369013306" lon="-2.0384544600"><ele>58.67</ele><time>2023-06-28T10:17:26Z</time></trkpt><trkpt lat="52.0367942937" lon="-2.0384309907"><ele>57.36</ele><time>2023-06-28T10:17:44Z</time></trkpt><trkpt lat="52.0367541444" lon="-2.0384611655"><ele>56.03</ele><time>2023-06-28T10:18:00Z</time></trkpt><trkpt lat="52.0366667211" lon="-2.0384732354"><ele>54.99</ele><time>2023-06-28T10:18:18Z</time></trkpt><trkpt lat="52.0366492029" lon="-2.0384827070"><ele>53.97</ele><time>2023-06-28T10:18:32Z</time></trkpt><trkpt lat="52.0365777891" lon="-2.0384769235"><ele>53.82</ele><time>2023-06-28T10:18:48Z</time></trkpt><trkpt lat="52.0364852529" lon="-2.0384666137"><ele>52.47</ele><time>2023-06-28T10:19:03Z</time></trkpt><trkpt lat="52.0364624541" lon="-2.0384647697"><ele>52.15</ele><time>2023-06-28T10:19:07Z</time></trkpt><trkpt lat="52.0363507234" lon="-2.0384818688"><ele>50.64</ele><time>2023-06-28T10:19:21Z</time></trkpt><trkpt lat="52.0362762921" lon="-2.0384881552"><ele>49.28</ele><time>2023-06-28T10:19:35Z</time></trkpt><trkpt lat="52.0361749548" lon="-2.0384902507"><ele>47.90</ele><time>2023-06-28T10:19:50Z</time></trkpt><trkpt lat="52.0361177064" lon="-2.0384755824"><ele>46.11</ele><time>2023-06-28T10:20:07Z</time></trkpt><trkpt lat="52.0360367373" lon="-2.0384972915"><ele>45.44</ele><time>2023-06-28T10:20:26Z</time></trkpt><trkpt lat="52.0359527506" lon="-2.0384946093"><ele>44.47</ele><time>2023-06-28T10:20:42Z</time></trkpt><trkpt lat="52.0358775649" lon="-2.0385288913"><ele>43.38</ele><time>2023-06-28T10:20:57Z</time></trkpt><trkpt lat="52.0357793290" lon="-2.0385416318"><ele>41.95</ele><time>2023-06-28T10:21:12Z</time></trkpt><trkpt lat="52.0356777404" lon="-2.0385782607"><ele>40.45</ele><time>2023-06-28T10:21:30Z</time></trkpt><trkpt lat="52.0355952624" lon="-2.0386116207"><ele>39.35</ele><time>2023-06-28T10:21:45Z</time></trkpt><trkpt lat="52.0355130360" lon="-2.0386736467"><ele>37.77</ele><time>2023-06-28T10:22:00Z</time></trkpt><trkpt lat="52.0354293846" lon="-2.0387117844"><ele>36.39</ele><time>2023-06-28T10:22:18Z</time></trkpt><trkpt lat="52.0353813563" lon="-2.0387342479"><ele>35.76</ele><time>2023-06-28T10:22:33Z</time></trkpt><trkpt lat="52.0353462361" lon="-2.0386925898"><ele>35.13</ele><time>2023-06-28T10:22:56Z</time></trkpt><trkpt lat="52.0352694578" lon="-2.0387384389"><ele>34.57</ele><time>2023-06-28T10:23:12Z</time></trkpt><trkpt lat="52.0351806935" lon="-2.0388159715"><ele>33.30</ele><time>2023-06-28T10:23:29Z</time></trkpt><trkpt lat="52.0350962039" lon="-2.0388609823"><ele>31.88</ele><time>2023-06-28T10:23:44Z</time></trkpt><trkpt lat="52.0350108761" lon="-2.0388971921"><ele>30.86</ele><time>2023-06-28T10:23:56Z</time></trkpt><trkpt lat="52.0349050127" lon="-2.0389204100"><ele>29.34</ele><time>2023-06-28T10:24:12Z</time></trkpt><trkpt lat="52.0347919408" lon="-2.0389564522"><ele>27.97</ele><time>2023-06-28T10:24:29Z</time></trkpt><trkpt lat="52.0347258076" lon="-2.0389734674"><ele>26.80</ele><time>2023-06-28T10:24:44Z</time></trkpt><trkpt lat="52.0346307568" lon="-2.0389763173"><ele>26.62</ele><time>2023-06-28T10:24:59Z</time></trkpt><trkpt lat="52.0345488656" lon="-2.0389921591"><ele>25.39</ele><time>2023-06-28T10:25:13Z</time></trkpt><trkpt lat="52.0345058665" lon="-2.0390178077"><ele>24.60</ele><time>2023-06-28T10:25:27Z</time></trkpt><trkpt lat="52.0344298426" lon="-2.0390069112"><ele>24.28</ele><time>2023-06-28T10:25:38Z</time></trkpt><trkpt lat="52.0343119930" lon="-2.0390186459"><ele>23.30</ele><time>2023-06-28T10:25:53Z</time></trkpt><trkpt lat="52.0342026092" lon="-2.0390282013"><ele>22.18</ele><time>2023-06-28T10:26:09Z</time></trkpt><trkpt lat="52.0341056306" lon="-2.0390575379"><ele>21.38</ele><time>2023-06-28T10:26:23Z</time></trkpt><trkpt lat="52.0340090711" lon="-2.0390742179"><ele>20.28</ele><time>2023-06-28T10:26:37Z</time></trkpt><trkpt lat="52.0339137688" lon="-2.0391109306"><ele>19.45</ele><time>2023-06-28T10:26:51Z</time></trkpt><trkpt lat="52.0338042174" lon="-2.0391382556"><ele>18.50</ele><time>2023-06-28T10:27:07Z</time></trkpt><trkpt lat="52.0337096695" lon="-2.0391862839"><ele>17.47</ele><time>2023-06-28T10:27:21Z</time></trkpt><trkpt lat="52.0335942507" lon="-2.0392304566"><ele>16.79</ele><time>2023-06-28T10:27:36Z</time></trkpt><trkpt lat="52.0334968530" lon="-2.0392872859"><ele>16.07</ele><time>2023-06-28T10:27:51Z</time></trkpt><trkpt lat="52.0333955158" lon="-2.0393114258"><ele>15.05</ele><time>2023-06-28T10:28:05Z</time></trkpt><trkpt lat="52.0333685260" lon="-2.0393001102"><ele>14.10</ele><time>2023-06-28T10:28:25Z</time></trkpt><trkpt lat="52.0333655924" lon="-2.0393062290"><ele>8.79</ele><time>2023-06-28T10:28:32Z</time></trkpt><trkpt lat="52.0333633292" lon="-2.0393037144"><ele>-3.96</ele><time>2023-06-28T10:28:33Z</time></trkpt><trkpt lat="52.0333622396" lon="-2.0393015351"><ele>-15.16</ele><time>2023-06-28T10:28:34Z</time></trkpt><trkpt lat="52.0333609823" lon="-2.0392994396"><ele>-20.84</ele><time>2023-06-28T10:28:35Z</time></trkpt><trkpt lat="52.0333609823" lon="-2.0392964222"><ele>-24.37</ele><time>2023-06-28T10:28:37Z</time></trkpt><trkpt lat="52.0333613176" lon="-2.0392952487"><ele>-20.56</ele><time>2023-06-28T10:28:38Z</time></trkpt><trkpt lat="52.0333619043" lon="-2.0392942429"><ele>-15.07</ele><time>2023-06-28T10:28:39Z</time></trkpt><trkpt lat="52.0333634131" lon="-2.0392934885"><ele>-9.46</ele><time>2023-06-28T10:28:40Z</time></trkpt><trkpt lat="52.0333634969" lon="-2.0392919797"><ele>-4.53</ele><time>2023-06-28T10:28:41Z</time></trkpt><trkpt lat="52.0333631616" lon="-2.0392909739"><ele>-0.61</ele><time>2023-06-28T10:28:42Z</time></trkpt><trkpt lat="52.0333603956" lon="-2.0392877888"><ele>3.95</ele><time>2023-06-28T10:28:44Z</time></trkpt><trkpt lat="52.0333504211" lon="-2.0392849389"><ele>10.00</ele><time>2023-06-28T10:28:47Z</time></trkpt><trkpt lat="52.0333489124" lon="-2.0392830111"><ele>20.06</ele><time>2023-06-28T10:28:48Z</time></trkpt><trkpt lat="52.0333484095" lon="-2.0392829273"><ele>43.15</ele><time>2023-06-28T10:28:49Z</time></trkpt><trkpt lat="52.0333492476" lon="-2.0392851904"><ele>43.15</ele><time>2023-06-28T10:28:50Z</time></trkpt><trkpt lat="52.0333494991" lon="-2.0392865315"><ele>50.27</ele><time>2023-06-28T10:28:51Z</time></trkpt><trkpt lat="52.0333492476" lon="-2.0392889623"><ele>48.19</ele><time>2023-06-28T10:28:52Z</time></trkpt><trkpt lat="52.0333487447" lon="-2.0392937399"><ele>43.89</ele><time>2023-06-28T10:28:53Z</time></trkpt><trkpt lat="52.0333469845" lon="-2.0392982662"><ele>39.03</ele><time>2023-06-28T10:28:54Z</time></trkpt><trkpt lat="52.0333450567" lon="-2.0393014513"><ele>34.42</ele><time>2023-06-28T10:28:55Z</time></trkpt><trkpt lat="52.0333435480" lon="-2.0393028762"><ele>30.36</ele><time>2023-06-28T10:28:56Z</time></trkpt><trkpt lat="52.0333421230" lon="-2.0393027086"><ele>26.94</ele><time>2023-06-28T10:28:57Z</time></trkpt><trkpt lat="52.0333416201" lon="-2.0393022895"><ele>21.94</ele><time>2023-06-28T10:28:59Z</time></trkpt><trkpt lat="52.0333412010" lon="-2.0393017028"><ele>18.82</ele><time>2023-06-28T10:29:01Z</time></trkpt><trkpt lat="52.0333310589" lon="-2.0393038820"><ele>16.24</ele><time>2023-06-28T10:29:04Z</time></trkpt><trkpt lat="52.0333051588" lon="-2.0393056422"><ele>14.93</ele><time>2023-06-28T10:29:07Z</time></trkpt><trkpt lat="52.0331946015" lon="-2.0393721946"><ele>13.42</ele><time>2023-06-28T10:29:20Z</time></trkpt><trkpt lat="52.0331763290" lon="-2.0393913053"><ele>13.14</ele><time>2023-06-28T10:29:22Z</time></trkpt><trkpt lat="52.0330681186" lon="-2.0394291077"><ele>10.98</ele><time>2023-06-28T10:29:41Z</time></trkpt><trkpt lat="52.0330267958" lon="-2.0394601207"><ele>10.61</ele><time>2023-06-28T10:29:48Z</time></trkpt><trkpt lat="52.0329774264" lon="-2.0394650660"><ele>9.89</ele><time>2023-06-28T10:30:08Z</time></trkpt><trkpt lat="52.0329436474" lon="-2.0394840091"><ele>9.74</ele><time>2023-06-28T10:30:12Z</time></trkpt><trkpt lat="52.0328305755" lon="-2.0395301934"><ele>9.33</ele><time>2023-06-28T10:30:23Z</time></trkpt><trkpt lat="52.0328121353" lon="-2.0395472925"><ele>9.15</ele><time>2023-06-28T10:30:25Z</time></trkpt><trkpt lat="52.0327622630" lon="-2.0395654812"><ele>8.64</ele><time>2023-06-28T10:30:30Z</time></trkpt><trkpt lat="52.0326376241" lon="-2.0396060497"><ele>7.39</ele><time>2023-06-28T10:30:45Z</time></trkpt><trkpt lat="52.0325176790" lon="-2.0396519825"><ele>6.31</ele><time>2023-06-28T10:31:00Z</time></trkpt><trkpt lat="52.0324051939" lon="-2.0396762900"><ele>5.58</ele><time>2023-06-28T10:31:14Z</time></trkpt><trkpt lat="52.0323291700" lon="-2.0396994241"><ele>4.78</ele><time>2023-06-28T10:31:29Z</time></trkpt><trkpt lat="52.0322226360" lon="-2.0397242345"><ele>4.62</ele><time>2023-06-28T10:31:42Z</time></trkpt><trkpt lat="52.0321052894" lon="-2.0397628751"><ele>4.06</ele><time>2023-06-28T10:31:56Z</time></trkpt><trkpt lat="52.0319954026" lon="-2.0397844166"><ele>3.29</ele><time>2023-06-28T10:32:10Z</time></trkpt><trkpt lat="52.0319588576" lon="-2.0397745259"><ele>2.43</ele><time>2023-06-28T10:32:23Z</time></trkpt><trkpt lat="52.0319482125" lon="-2.0397572592"><ele>2.14</ele><time>2023-06-28T10:32:44Z</time></trkpt><trkpt lat="52.0319364779" lon="-2.0398520585"><ele>2.05</ele><time>2023-06-28T10:33:01Z</time></trkpt><trkpt lat="52.0319559239" lon="-2.0400137454"><ele>2.28</ele><time>2023-06-28T10:33:17Z</time></trkpt><trkpt lat="52.0319596957" lon="-2.0400366280"><ele>2.30</ele><time>2023-06-28T10:33:19Z</time></trkpt><trkpt lat="52.0319935586" lon="-2.0401732530"><ele>2.37</ele><time>2023-06-28T10:33:29Z</time></trkpt><trkpt lat="52.0320010185" lon="-2.0403742511"><ele>2.20</ele><time>2023-06-28T10:33:43Z</time></trkpt><trkpt lat="52.0319989230" lon="-2.0405556355"><ele>1.98</ele><time>2023-06-28T10:33:57Z</time></trkpt><trkpt lat="52.0319992583" lon="-2.0407871436"><ele>1.67</ele><time>2023-06-28T10:34:16Z</time></trkpt><trkpt lat="52.0320100710" lon="-2.0410173945"><ele>1.49</ele><time>2023-06-28T10:34:34Z</time></trkpt><trkpt lat="52.0320206322" lon="-2.0412260201"><ele>2.04</ele><time>2023-06-28T10:34:55Z</time></trkpt><trkpt lat="52.0320347138" lon="-2.0414750464"><ele>2.41</ele><time>2023-06-28T10:35:15Z</time></trkpt><trkpt lat="52.0320472028" lon="-2.0415523276"><ele>2.69</ele><time>2023-06-28T10:35:36Z</time></trkpt><trkpt lat="52.0320444368" lon="-2.0415452030"><ele>2.69</ele><time>2023-06-28T10:36:10Z</time></trkpt><trkpt lat="52.0320631284" lon="-2.0415987633"><ele>2.69</ele><time>2023-06-28T10:36:29Z</time></trkpt><trkpt lat="52.0320630446" lon="-2.0416434389"><ele>2.69</ele><time>2023-06-28T10:36:37Z</time></trkpt><trkpt lat="52.0320767909" lon="-2.0417503919"><ele>2.71</ele><time>2023-06-28T10:36:44Z</time></trkpt><trkpt lat="52.0320875198" lon="-2.0418027788"><ele>2.76</ele><time>2023-06-28T10:36:47Z</time></trkpt><trkpt lat="52.0321106538" lon="-2.0419167727"><ele>2.98</ele><time>2023-06-28T10:36:54Z</time></trkpt><trkpt lat="52.0321279205" lon="-2.0421744324"><ele>3.06</ele><time>2023-06-28T10:37:09Z</time></trkpt><trkpt lat="52.0321475342" lon="-2.0424273144"><ele>2.75</ele><time>2023-06-28T10:37:23Z</time></trkpt><trkpt lat="52.0321550779" lon="-2.0426310785"><ele>2.09</ele><time>2023-06-28T10:37:35Z</time></trkpt><trkpt lat="52.0321560837" lon="-2.0426485967"><ele>2.03</ele><time>2023-06-28T10:37:36Z</time></trkpt><trkpt lat="52.0321601909" lon="-2.0426907577"><ele>1.95</ele><time>2023-06-28T10:37:39Z</time></trkpt><trkpt lat="52.0321572572" lon="-2.0428118762"><ele>1.79</ele><time>2023-06-28T10:37:46Z</time></trkpt><trkpt lat="52.0321420860" lon="-2.0429447293"><ele>1.31</ele><time>2023-06-28T10:37:53Z</time></trkpt><trkpt lat="52.0321429241" lon="-2.0429810230"><ele>1.09</ele><time>2023-06-28T10:37:55Z</time></trkpt><trkpt lat="52.0321244001" lon="-2.0431617368"><ele>0.33</ele><time>2023-06-28T10:38:05Z</time></trkpt><trkpt lat="52.0321198739" lon="-2.0432104357"><ele>-0.75</ele><time>2023-06-28T10:38:22Z</time></trkpt><trkpt lat="52.0320964046" lon="-2.0433086716"><ele>-1.06</ele><time>2023-06-28T10:38:37Z</time></trkpt><trkpt lat="52.0320929680" lon="-2.0433347393"><ele>-1.13</ele><time>2023-06-28T10:38:39Z</time></trkpt><trkpt lat="52.0320911240" lon="-2.0434953365"><ele>-2.26</ele><time>2023-06-28T10:38:54Z</time></trkpt><trkpt lat="52.0320751984" lon="-2.0436518267"><ele>-3.72</ele><time>2023-06-28T10:39:08Z</time></trkpt><trkpt lat="52.0320649724" lon="-2.0437907148"><ele>-5.49</ele><time>2023-06-28T10:39:22Z</time></trkpt><trkpt lat="52.0320691634" lon="-2.0439086482"><ele>-6.89</ele><time>2023-06-28T10:39:37Z</time></trkpt><trkpt lat="52.0320633799" lon="-2.0440406632"><ele>-8.11</ele><time>2023-06-28T10:39:56Z</time></trkpt><trkpt lat="52.0320667326" lon="-2.0442109834"><ele>-9.75</ele><time>2023-06-28T10:40:14Z</time></trkpt><trkpt lat="52.0320785511" lon="-2.0443229657"><ele>-10.78</ele><time>2023-06-28T10:40:33Z</time></trkpt><trkpt lat="52.0321022719" lon="-2.0444786176"><ele>-12.04</ele><time>2023-06-28T10:40:49Z</time></trkpt><trkpt lat="52.0321140904" lon="-2.0445735008"><ele>-12.87</ele><time>2023-06-28T10:41:06Z</time></trkpt><trkpt lat="52.0321348775" lon="-2.0446625166"><ele>-13.25</ele><time>2023-06-28T10:41:16Z</time></trkpt><trkpt lat="52.0321702491" lon="-2.0447217766"><ele>-13.48</ele><time>2023-06-28T10:41:23Z</time></trkpt><trkpt lat="52.0322188642" lon="-2.0447648596"><ele>-13.04</ele><time>2023-06-28T10:41:31Z</time></trkpt><trkpt lat="52.0322944690" lon="-2.0448806975"><ele>-11.54</ele><time>2023-06-28T10:41:45Z</time></trkpt><trkpt lat="52.0322796330" lon="-2.0449246187"><ele>-11.16</ele><time>2023-06-28T10:42:04Z</time></trkpt><trkpt lat="52.0322894398" lon="-2.0449490938"><ele>-11.26</ele><time>2023-06-28T10:42:32Z</time></trkpt><trkpt lat="52.0323613565" lon="-2.0449767541"><ele>-11.05</ele><time>2023-06-28T10:42:52Z</time></trkpt><trkpt lat="52.0324599277" lon="-2.0450262912"><ele>-10.16</ele><time>2023-06-28T10:43:05Z</time></trkpt><trkpt lat="52.0325102191" lon="-2.0451992936"><ele>-9.06</ele><time>2023-06-28T10:43:21Z</time></trkpt><trkpt lat="52.0324905217" lon="-2.0452282950"><ele>-9.26</ele><time>2023-06-28T10:43:46Z</time></trkpt><trkpt lat="52.0325222053" lon="-2.0453183167"><ele>-9.24</ele><time>2023-06-28T10:44:07Z</time></trkpt><trkpt lat="52.0325051062" lon="-2.0453667641"><ele>-8.16</ele><time>2023-06-28T10:44:23Z</time></trkpt><trkpt lat="52.0325048547" lon="-2.0454111882"><ele>-8.18</ele><time>2023-06-28T10:44:51Z</time></trkpt><trkpt lat="52.0324969757" lon="-2.0455256011"><ele>-7.48</ele><time>2023-06-28T10:45:05Z</time></trkpt><trkpt lat="52.0325160865" lon="-2.0455616433"><ele>-6.80</ele><time>2023-06-28T10:45:31Z</time></trkpt><trkpt lat="52.0325300843" lon="-2.0455794130"><ele>-6.69</ele><time>2023-06-28T10:46:05Z</time></trkpt><trkpt lat="52.0325202774" lon="-2.0455729589"><ele>-6.56</ele><time>2023-06-28T10:46:42Z</time></trkpt><trkpt lat="52.0325116441" lon="-2.0455995295"><ele>-6.56</ele><time>2023-06-28T10:46:45Z</time></trkpt><trkpt lat="52.0325125661" lon="-2.0456744637"><ele>-6.13</ele><time>2023-06-28T10:46:51Z</time></trkpt><trkpt lat="52.0325062796" lon="-2.0457804110"><ele>-5.29</ele><time>2023-06-28T10:46:58Z</time></trkpt><trkpt lat="52.0325009990" lon="-2.0458939858"><ele>-4.35</ele><time>2023-06-28T10:47:05Z</time></trkpt><trkpt lat="52.0325010829" lon="-2.0461342111"><ele>-2.69</ele><time>2023-06-28T10:47:19Z</time></trkpt><trkpt lat="52.0324875042" lon="-2.0462683216"><ele>-2.49</ele><time>2023-06-28T10:47:31Z</time></trkpt><trkpt lat="52.0324792899" lon="-2.0462828223"><ele>-2.80</ele><time>2023-06-28T10:48:08Z</time></trkpt><trkpt lat="52.0324850734" lon="-2.0463104825"><ele>-2.50</ele><time>2023-06-28T10:48:37Z</time></trkpt><trkpt lat="52.0324923657" lon="-2.0463728439"><ele>-2.50</ele><time>2023-06-28T10:48:55Z</time></trkpt><trkpt lat="52.0324878395" lon="-2.0464130770"><ele>-2.50</ele><time>2023-06-28T10:48:58Z</time></trkpt><trkpt lat="52.0324816369" lon="-2.0466518775"><ele>-3.77</ele><time>2023-06-28T10:49:12Z</time></trkpt><trkpt lat="52.0325042680" lon="-2.0468175877"><ele>-4.58</ele><time>2023-06-28T10:49:21Z</time></trkpt><trkpt lat="52.0325175952" lon="-2.0470794383"><ele>-6.08</ele><time>2023-06-28T10:49:35Z</time></trkpt><trkpt lat="52.0325422380" lon="-2.0473860484"><ele>-6.13</ele><time>2023-06-28T10:49:51Z</time></trkpt><trkpt lat="52.0325496141" lon="-2.0476667583"><ele>-4.68</ele><time>2023-06-28T10:50:06Z</time></trkpt><trkpt lat="52.0325767715" lon="-2.0479293633"><ele>-3.50</ele><time>2023-06-28T10:50:20Z</time></trkpt><trkpt lat="52.0325810462" lon="-2.0479696803"><ele>-3.35</ele><time>2023-06-28T10:50:23Z</time></trkpt><trkpt lat="52.0326037612" lon="-2.0481125917"><ele>-2.83</ele><time>2023-06-28T10:50:39Z</time></trkpt><trkpt lat="52.0326269791" lon="-2.0481310319"><ele>-2.69</ele><time>2023-06-28T10:50:56Z</time></trkpt><trkpt lat="52.0326248836" lon="-2.0481949858"><ele>-2.75</ele><time>2023-06-28T10:51:17Z</time></trkpt><trkpt lat="52.0326365344" lon="-2.0482956525"><ele>-2.58</ele><time>2023-06-28T10:51:24Z</time></trkpt><trkpt lat="52.0326470956" lon="-2.0483782981"><ele>-2.41</ele><time>2023-06-28T10:51:29Z</time></trkpt><trkpt lat="52.0326873288" lon="-2.0486212056"><ele>-2.29</ele><time>2023-06-28T10:51:42Z</time></trkpt><trkpt lat="52.0326897595" lon="-2.0487849880"><ele>-2.25</ele><time>2023-06-28T10:51:55Z</time></trkpt><trkpt lat="52.0327413082" lon="-2.0489875786"><ele>-2.36</ele><time>2023-06-28T10:52:09Z</time></trkpt><trkpt lat="52.0326952916" lon="-2.0490468387"><ele>-2.68</ele><time>2023-06-28T10:52:23Z</time></trkpt><trkpt lat="52.0326973032" lon="-2.0490811206"><ele>-3.02</ele><time>2023-06-28T10:52:43Z</time></trkpt><trkpt lat="52.0327514503" lon="-2.0491827931"><ele>-3.18</ele><time>2023-06-28T10:52:55Z</time></trkpt><trkpt lat="52.0327677950" lon="-2.0492966194"><ele>-3.55</ele><time>2023-06-28T10:53:14Z</time></trkpt><trkpt lat="52.0327856485" lon="-2.0494388603"><ele>-3.75</ele><time>2023-06-28T10:53:23Z</time></trkpt><trkpt lat="52.0328029152" lon="-2.0495006349"><ele>-3.94</ele><time>2023-06-28T10:53:28Z</time></trkpt><trkpt lat="52.0328108780" lon="-2.0495655108"><ele>-3.97</ele><time>2023-06-28T10:53:32Z</time></trkpt><trkpt lat="52.0328547154" lon="-2.0498079993"><ele>-3.69</ele><time>2023-06-28T10:53:48Z</time></trkpt><trkpt lat="52.0328765083" lon="-2.0498994458"><ele>-3.78</ele><time>2023-06-28T10:53:54Z</time></trkpt><trkpt lat="52.0329028275" lon="-2.0501003601"><ele>-3.94</ele><time>2023-06-28T10:54:10Z</time></trkpt><trkpt lat="52.0329343434" lon="-2.0502105821"><ele>-3.79</ele><time>2023-06-28T10:54:26Z</time></trkpt><trkpt lat="52.0329652727" lon="-2.0504424255"><ele>-4.09</ele><time>2023-06-28T10:54:43Z</time></trkpt><trkpt lat="52.0330011472" lon="-2.0506417472"><ele>-4.30</ele><time>2023-06-28T10:55:00Z</time></trkpt><trkpt lat="52.0330499299" lon="-2.0508479420"><ele>-4.96</ele><time>2023-06-28T10:55:15Z</time></trkpt><trkpt lat="52.0330790151" lon="-2.0510030072"><ele>-6.16</ele><time>2023-06-28T10:55:31Z</time></trkpt><trkpt lat="52.0330809429" lon="-2.0510802045"><ele>-6.97</ele><time>2023-06-28T10:55:45Z</time></trkpt><trkpt lat="52.0330764167" lon="-2.0510885026"><ele>-7.19</ele><time>2023-06-28T10:56:09Z</time></trkpt><trkpt lat="52.0330866426" lon="-2.0511128940"><ele>-7.30</ele><time>2023-06-28T10:56:37Z</time></trkpt><trkpt lat="52.0330989640" lon="-2.0511434879"><ele>-7.14</ele><time>2023-06-28T10:57:05Z</time></trkpt><trkpt lat="52.0331154764" lon="-2.0511252992"><ele>-7.14</ele><time>2023-06-28T10:57:36Z</time></trkpt><trkpt lat="52.0331826154" lon="-2.0512070227"><ele>-7.14</ele><time>2023-06-28T10:58:00Z</time></trkpt><trkpt lat="52.0331980381" lon="-2.0513007324"><ele>-7.14</ele><time>2023-06-28T10:58:14Z</time></trkpt><trkpt lat="52.0332585555" lon="-2.0513795223"><ele>-7.14</ele><time>2023-06-28T10:58:27Z</time></trkpt><trkpt lat="52.0332510956" lon="-2.0515174046"><ele>-7.14</ele><time>2023-06-28T10:58:39Z</time></trkpt><trkpt lat="52.0332109462" lon="-2.0518251043"><ele>-7.14</ele><time>2023-06-28T10:58:57Z</time></trkpt><trkpt lat="52.0332021452" lon="-2.0518391859"><ele>-10.59</ele><time>2023-06-28T10:58:59Z</time></trkpt><trkpt lat="52.0331972837" lon="-2.0518562011"><ele>-10.62</ele><time>2023-06-28T10:59:00Z</time></trkpt><trkpt lat="52.0331511833" lon="-2.0520520024"><ele>-11.29</ele><time>2023-06-28T10:59:16Z</time></trkpt><trkpt lat="52.0330652688" lon="-2.0521537587"><ele>-11.43</ele><time>2023-06-28T10:59:34Z</time></trkpt><trkpt lat="52.0329397079" lon="-2.0522687584"><ele>-12.13</ele><time>2023-06-28T10:59:49Z</time></trkpt><trkpt lat="52.0328943618" lon="-2.0523115899"><ele>-12.47</ele><time>2023-06-28T10:59:56Z</time></trkpt><trkpt lat="52.0328488480" lon="-2.0523606241"><ele>-12.95</ele><time>2023-06-28T11:00:05Z</time></trkpt><trkpt lat="52.0327428170" lon="-2.0524271764"><ele>-13.52</ele><time>2023-06-28T11:00:17Z</time></trkpt><trkpt lat="52.0327054337" lon="-2.0524586923"><ele>-13.79</ele><time>2023-06-28T11:00:22Z</time></trkpt><trkpt lat="52.0326729119" lon="-2.0524943154"><ele>-14.09</ele><time>2023-06-28T11:00:26Z</time></trkpt><trkpt lat="52.0326325949" lon="-2.0525018591"><ele>-14.98</ele><time>2023-06-28T11:00:41Z</time></trkpt><trkpt lat="52.0326313376" lon="-2.0525135100"><ele>-15.28</ele><time>2023-06-28T11:00:58Z</time></trkpt><trkpt lat="52.0326049346" lon="-2.0524901245"><ele>-14.28</ele><time>2023-06-28T11:01:14Z</time></trkpt></trkseg></trk></gpx>